sensor_id;sensor_type;location;lat;lon;timestamp;P1;durP1;ratioP1;P2;durP2;ratioP2
19848;SDS011;10085;51.120;6.956;2023-02-10T00:03:05;105.88;;;47.45;;
19848;SDS011;10085;51.120;6.956;2023-02-10T00:08:07;110.28;;;47.08;;
19848;SDS011;10085;51.120;6.956;2023-02-10T00:13:11;100.25;;;45.88;;
19848;SDS011;10085;51.120;6.956;2023-02-10T00:18:15;96.25;;;43.10;;
19848;SDS011;10085;51.120;6.956;2023-02-10T00:23:18;97.07;;;42.85;;
19848;SDS011;10085;51.120;6.956;2023-02-10T00:28:21;92.30;;;42.67;;
19848;SDS011;10085;51.120;6.956;2023-02-10T00:33:25;83.65;;;39.95;;
19848;SDS011;10085;51.120;6.956;2023-02-10T00:38:28;81.95;;;39.33;;
19848;SDS011;10085;51.120;6.956;2023-02-10T00:43:31;81.28;;;38.47;;
19848;SDS011;10085;51.120;6.956;2023-02-10T00:48:36;84.00;;;38.65;;
19848;SDS011;10085;51.120;6.956;2023-02-10T00:53:38;87.93;;;37.13;;
19848;SDS011;10085;51.120;6.956;2023-02-10T00:58:41;80.57;;;34.78;;
19848;SDS011;10085;51.120;6.956;2023-02-10T01:03:45;73.03;;;35.10;;
19848;SDS011;10085;51.120;6.956;2023-02-10T01:08:48;73.85;;;34.38;;
19848;SDS011;10085;51.120;6.956;2023-02-10T01:13:51;70.25;;;32.42;;
19848;SDS011;10085;51.120;6.956;2023-02-10T01:18:57;68.63;;;32.80;;
19848;SDS011;10085;51.120;6.956;2023-02-10T01:24:00;65.72;;;30.27;;
19848;SDS011;10085;51.120;6.956;2023-02-10T01:29:05;61.38;;;28.80;;
19848;SDS011;10085;51.120;6.956;2023-02-10T01:34:09;60.72;;;29.55;;
19848;SDS011;10085;51.120;6.956;2023-02-10T01:39:13;57.88;;;27.90;;
19848;SDS011;10085;51.120;6.956;2023-02-10T01:49:58;53.47;;;26.00;;
19848;SDS011;10085;51.120;6.956;2023-02-10T01:55:01;54.33;;;25.88;;
19848;SDS011;10085;51.120;6.956;2023-02-10T02:00:07;52.42;;;25.98;;
19848;SDS011;10085;51.120;6.956;2023-02-10T02:05:22;52.33;;;24.08;;
19848;SDS011;10085;51.120;6.956;2023-02-10T02:10:35;51.80;;;24.35;;
19848;SDS011;10085;51.120;6.956;2023-02-10T02:15:46;49.50;;;23.88;;
19848;SDS011;10085;51.120;6.956;2023-02-10T02:20:59;46.28;;;22.08;;
19848;SDS011;10085;51.120;6.956;2023-02-10T02:31:50;42.85;;;21.27;;
19848;SDS011;10085;51.120;6.956;2023-02-10T02:36:57;42.15;;;20.95;;
19848;SDS011;10085;51.120;6.956;2023-02-10T02:53:09;42.58;;;20.33;;
19848;SDS011;10085;51.120;6.956;2023-02-10T02:58:22;42.45;;;20.83;;
19848;SDS011;10085;51.120;6.956;2023-02-10T03:03:33;42.33;;;19.88;;
19848;SDS011;10085;51.120;6.956;2023-02-10T03:08:38;43.40;;;19.05;;
19848;SDS011;10085;51.120;6.956;2023-02-10T03:13:41;40.53;;;19.17;;
19848;SDS011;10085;51.120;6.956;2023-02-10T03:18:46;38.67;;;18.50;;
19848;SDS011;10085;51.120;6.956;2023-02-10T03:23:48;35.03;;;18.23;;
19848;SDS011;10085;51.120;6.956;2023-02-10T03:28:51;41.17;;;18.65;;
19848;SDS011;10085;51.120;6.956;2023-02-10T03:33:55;37.38;;;18.20;;
19848;SDS011;10085;51.120;6.956;2023-02-10T03:38:58;36.50;;;17.90;;
19848;SDS011;10085;51.120;6.956;2023-02-10T03:44:01;35.03;;;17.10;;
19848;SDS011;10085;51.120;6.956;2023-02-10T03:49:05;35.45;;;16.98;;
19848;SDS011;10085;51.120;6.956;2023-02-10T03:54:08;35.25;;;16.15;;
19848;SDS011;10085;51.120;6.956;2023-02-10T03:59:11;32.15;;;15.43;;
19848;SDS011;10085;51.120;6.956;2023-02-10T04:04:15;33.70;;;15.52;;
19848;SDS011;10085;51.120;6.956;2023-02-10T04:09:17;33.28;;;15.93;;
19848;SDS011;10085;51.120;6.956;2023-02-10T04:14:20;34.70;;;15.38;;
19848;SDS011;10085;51.120;6.956;2023-02-10T04:19:24;29.70;;;14.57;;
19848;SDS011;10085;51.120;6.956;2023-02-10T04:24:27;31.25;;;15.35;;
19848;SDS011;10085;51.120;6.956;2023-02-10T04:29:30;32.63;;;15.50;;
19848;SDS011;10085;51.120;6.956;2023-02-10T04:34:34;30.35;;;14.63;;
19848;SDS011;10085;51.120;6.956;2023-02-10T04:39:37;28.85;;;14.52;;
19848;SDS011;10085;51.120;6.956;2023-02-10T04:44:40;29.35;;;14.60;;
19848;SDS011;10085;51.120;6.956;2023-02-10T04:49:44;27.10;;;13.57;;
19848;SDS011;10085;51.120;6.956;2023-02-10T04:54:46;27.40;;;14.55;;
19848;SDS011;10085;51.120;6.956;2023-02-10T04:59:49;29.40;;;13.88;;
19848;SDS011;10085;51.120;6.956;2023-02-10T05:04:53;30.40;;;14.55;;
19848;SDS011;10085;51.120;6.956;2023-02-10T05:09:56;26.50;;;13.07;;
19848;SDS011;10085;51.120;6.956;2023-02-10T05:15:00;28.55;;;13.88;;
19848;SDS011;10085;51.120;6.956;2023-02-10T05:20:04;25.52;;;12.25;;
19848;SDS011;10085;51.120;6.956;2023-02-10T05:25:07;25.40;;;13.05;;
19848;SDS011;10085;51.120;6.956;2023-02-10T05:30:11;25.85;;;12.88;;
19848;SDS011;10085;51.120;6.956;2023-02-10T05:35:16;28.38;;;14.15;;
19848;SDS011;10085;51.120;6.956;2023-02-10T05:40:19;21.30;;;11.63;;
19848;SDS011;10085;51.120;6.956;2023-02-10T05:45:23;21.70;;;11.68;;
19848;SDS011;10085;51.120;6.956;2023-02-10T05:50:27;23.95;;;11.98;;
19848;SDS011;10085;51.120;6.956;2023-02-10T05:55:31;23.15;;;11.73;;
19848;SDS011;10085;51.120;6.956;2023-02-10T06:00:34;24.00;;;12.18;;
19848;SDS011;10085;51.120;6.956;2023-02-10T06:05:38;20.40;;;10.75;;
19848;SDS011;10085;51.120;6.956;2023-02-10T06:10:41;23.38;;;12.05;;
19848;SDS011;10085;51.120;6.956;2023-02-10T06:15:43;22.08;;;11.52;;
19848;SDS011;10085;51.120;6.956;2023-02-10T06:20:48;22.80;;;11.50;;
19848;SDS011;10085;51.120;6.956;2023-02-10T06:25:52;23.50;;;11.90;;
19848;SDS011;10085;51.120;6.956;2023-02-10T06:30:55;22.70;;;11.45;;
19848;SDS011;10085;51.120;6.956;2023-02-10T06:36:00;22.08;;;11.27;;
19848;SDS011;10085;51.120;6.956;2023-02-10T06:41:05;20.92;;;11.05;;
19848;SDS011;10085;51.120;6.956;2023-02-10T06:46:08;21.88;;;10.75;;
19848;SDS011;10085;51.120;6.956;2023-02-10T06:51:13;24.70;;;12.15;;
19848;SDS011;10085;51.120;6.956;2023-02-10T06:56:16;20.48;;;10.43;;
19848;SDS011;10085;51.120;6.956;2023-02-10T07:01:19;20.13;;;9.70;;
19848;SDS011;10085;51.120;6.956;2023-02-10T07:06:23;19.35;;;10.48;;
19848;SDS011;10085;51.120;6.956;2023-02-10T07:11:26;24.48;;;11.43;;
19848;SDS011;10085;51.120;6.956;2023-02-10T07:16:28;21.23;;;10.32;;
19848;SDS011;10085;51.120;6.956;2023-02-10T07:21:33;21.33;;;10.65;;
19848;SDS011;10085;51.120;6.956;2023-02-10T07:26:36;20.98;;;10.63;;
19848;SDS011;10085;51.120;6.956;2023-02-10T07:31:38;19.25;;;9.98;;
19848;SDS011;10085;51.120;6.956;2023-02-10T07:36:43;24.67;;;11.00;;
19848;SDS011;10085;51.120;6.956;2023-02-10T07:41:45;27.08;;;12.20;;
19848;SDS011;10085;51.120;6.956;2023-02-10T07:46:48;17.50;;;9.40;;
19848;SDS011;10085;51.120;6.956;2023-02-10T07:51:54;22.15;;;11.43;;
19848;SDS011;10085;51.120;6.956;2023-02-10T07:56:57;17.95;;;9.27;;
19848;SDS011;10085;51.120;6.956;2023-02-10T08:02:00;21.52;;;10.20;;
19848;SDS011;10085;51.120;6.956;2023-02-10T08:07:04;19.73;;;9.55;;
19848;SDS011;10085;51.120;6.956;2023-02-10T08:12:07;18.02;;;9.70;;
19848;SDS011;10085;51.120;6.956;2023-02-10T08:17:09;20.40;;;10.10;;
19848;SDS011;10085;51.120;6.956;2023-02-10T08:22:13;24.73;;;9.32;;
19848;SDS011;10085;51.120;6.956;2023-02-10T08:27:16;20.20;;;9.00;;
19848;SDS011;10085;51.120;6.956;2023-02-10T08:32:19;714.55;;;298.45;;
19848;SDS011;10085;51.120;6.956;2023-02-10T08:37:23;635.78;;;257.20;;
19848;SDS011;10085;51.120;6.956;2023-02-10T08:42:26;610.20;;;249.07;;
19848;SDS011;10085;51.120;6.956;2023-02-10T08:47:29;575.47;;;224.82;;
19848;SDS011;10085;51.120;6.956;2023-02-10T08:52:33;563.97;;;220.10;;
19848;SDS011;10085;51.120;6.956;2023-02-10T08:57:36;558.33;;;217.40;;
19848;SDS011;10085;51.120;6.956;2023-02-10T09:02:39;535.88;;;203.85;;
19848;SDS011;10085;51.120;6.956;2023-02-10T09:07:43;510.45;;;197.73;;
19848;SDS011;10085;51.120;6.956;2023-02-10T09:17:58;450.90;;;166.27;;
19848;SDS011;10085;51.120;6.956;2023-02-10T09:23:02;439.63;;;159.60;;
19848;SDS011;10085;51.120;6.956;2023-02-10T09:28:05;438.42;;;154.38;;
19848;SDS011;10085;51.120;6.956;2023-02-10T09:33:09;411.42;;;148.38;;
19848;SDS011;10085;51.120;6.956;2023-02-10T09:38:13;399.65;;;146.80;;
19848;SDS011;10085;51.120;6.956;2023-02-10T09:43:19;390.55;;;141.50;;
19848;SDS011;10085;51.120;6.956;2023-02-10T09:48:31;363.63;;;138.05;;
19848;SDS011;10085;51.120;6.956;2023-02-10T09:53:39;363.15;;;134.20;;
19848;SDS011;10085;51.120;6.956;2023-02-10T09:58:43;340.55;;;130.93;;
19848;SDS011;10085;51.120;6.956;2023-02-10T10:03:48;328.33;;;125.22;;
19848;SDS011;10085;51.120;6.956;2023-02-10T10:08:56;317.75;;;121.63;;
19848;SDS011;10085;51.120;6.956;2023-02-10T10:14:04;300.08;;;117.18;;
19848;SDS011;10085;51.120;6.956;2023-02-10T10:19:10;292.23;;;112.90;;
19848;SDS011;10085;51.120;6.956;2023-02-10T10:24:24;272.33;;;108.95;;
19848;SDS011;10085;51.120;6.956;2023-02-10T10:29:39;257.10;;;104.30;;
19848;SDS011;10085;51.120;6.956;2023-02-10T10:34:49;247.75;;;100.13;;
19848;SDS011;10085;51.120;6.956;2023-02-10T10:39:56;249.93;;;98.28;;
19848;SDS011;10085;51.120;6.956;2023-02-10T10:45:02;224.48;;;95.50;;
19848;SDS011;10085;51.120;6.956;2023-02-10T10:50:11;224.75;;;92.05;;
19848;SDS011;10085;51.120;6.956;2023-02-10T10:55:17;215.65;;;90.32;;
19848;SDS011;10085;51.120;6.956;2023-02-10T11:00:24;202.73;;;84.47;;
19848;SDS011;10085;51.120;6.956;2023-02-10T11:05:29;190.82;;;79.90;;
19848;SDS011;10085;51.120;6.956;2023-02-10T11:10:37;181.52;;;78.40;;
19848;SDS011;10085;51.120;6.956;2023-02-10T11:15:57;178.77;;;76.15;;
19848;SDS011;10085;51.120;6.956;2023-02-10T11:21:02;171.80;;;72.30;;
19848;SDS011;10085;51.120;6.956;2023-02-10T11:26:16;162.90;;;68.85;;
19848;SDS011;10085;51.120;6.956;2023-02-10T11:31:24;163.95;;;68.57;;
19848;SDS011;10085;51.120;6.956;2023-02-10T11:36:34;154.70;;;65.32;;
19848;SDS011;10085;51.120;6.956;2023-02-10T11:41:39;149.05;;;63.53;;
19848;SDS011;10085;51.120;6.956;2023-02-10T11:46:42;145.93;;;62.47;;
19848;SDS011;10085;51.120;6.956;2023-02-10T11:51:50;139.10;;;60.45;;
19848;SDS011;10085;51.120;6.956;2023-02-10T11:57:02;132.77;;;57.78;;
19848;SDS011;10085;51.120;6.956;2023-02-10T12:02:35;132.85;;;55.58;;
19848;SDS011;10085;51.120;6.956;2023-02-10T12:07:52;123.95;;;52.55;;
19848;SDS011;10085;51.120;6.956;2023-02-10T12:13:05;122.50;;;52.60;;
19848;SDS011;10085;51.120;6.956;2023-02-10T12:18:18;115.38;;;50.88;;
19848;SDS011;10085;51.120;6.956;2023-02-10T12:23:30;111.35;;;48.83;;
19848;SDS011;10085;51.120;6.956;2023-02-10T12:28:43;111.07;;;48.55;;
19848;SDS011;10085;51.120;6.956;2023-02-10T12:34:00;107.97;;;46.85;;
19848;SDS011;10085;51.120;6.956;2023-02-10T12:39:12;99.45;;;44.38;;
19848;SDS011;10085;51.120;6.956;2023-02-10T12:44:24;96.60;;;43.85;;
19848;SDS011;10085;51.120;6.956;2023-02-10T12:49:36;96.32;;;44.25;;
19848;SDS011;10085;51.120;6.956;2023-02-10T12:54:48;95.65;;;42.30;;
19848;SDS011;10085;51.120;6.956;2023-02-10T12:59:58;89.53;;;40.47;;
19848;SDS011;10085;51.120;6.956;2023-02-10T13:05:02;81.82;;;39.70;;
19848;SDS011;10085;51.120;6.956;2023-02-10T13:10:09;82.97;;;38.65;;
19848;SDS011;10085;51.120;6.956;2023-02-10T13:15:23;74.63;;;36.75;;
19848;SDS011;10085;51.120;6.956;2023-02-10T13:20:34;73.00;;;36.10;;
19848;SDS011;10085;51.120;6.956;2023-02-10T13:25:45;71.72;;;35.03;;
19848;SDS011;10085;51.120;6.956;2023-02-10T13:31:00;66.28;;;32.63;;
19848;SDS011;10085;51.120;6.956;2023-02-10T13:36:13;69.00;;;32.95;;
19848;SDS011;10085;51.120;6.956;2023-02-10T13:41:22;65.45;;;31.13;;
19848;SDS011;10085;51.120;6.956;2023-02-10T13:46:49;66.00;;;31.02;;
19848;SDS011;10085;51.120;6.956;2023-02-10T13:51:59;63.35;;;29.65;;
19848;SDS011;10085;51.120;6.956;2023-02-10T13:57:21;58.10;;;27.27;;
19848;SDS011;10085;51.120;6.956;2023-02-10T14:02:27;62.08;;;29.13;;
19848;SDS011;10085;51.120;6.956;2023-02-10T14:07:34;53.38;;;26.73;;
19848;SDS011;10085;51.120;6.956;2023-02-10T14:12:38;58.10;;;26.15;;
19848;SDS011;10085;51.120;6.956;2023-02-10T14:17:42;55.95;;;25.98;;
19848;SDS011;10085;51.120;6.956;2023-02-10T14:22:56;49.35;;;24.17;;
19848;SDS011;10085;51.120;6.956;2023-02-10T14:28:00;49.88;;;23.92;;
19848;SDS011;10085;51.120;6.956;2023-02-10T14:33:06;41.85;;;21.98;;
19848;SDS011;10085;51.120;6.956;2023-02-10T14:38:20;46.40;;;22.25;;
19848;SDS011;10085;51.120;6.956;2023-02-10T14:43:25;46.45;;;23.48;;
19848;SDS011;10085;51.120;6.956;2023-02-10T14:54:13;37.72;;;19.25;;
19848;SDS011;10085;51.120;6.956;2023-02-10T14:59:21;42.50;;;19.30;;
19848;SDS011;10085;51.120;6.956;2023-02-10T15:04:26;46.58;;;18.50;;
19848;SDS011;10085;51.120;6.956;2023-02-10T15:09:31;41.70;;;17.77;;
19848;SDS011;10085;51.120;6.956;2023-02-10T15:14:39;42.40;;;18.02;;
19848;SDS011;10085;51.120;6.956;2023-02-10T15:19:54;45.95;;;18.52;;
19848;SDS011;10085;51.120;6.956;2023-02-10T15:25:08;35.08;;;16.65;;
19848;SDS011;10085;51.120;6.956;2023-02-10T15:30:31;39.95;;;16.95;;
19848;SDS011;10085;51.120;6.956;2023-02-10T15:35:51;38.97;;;16.23;;
19848;SDS011;10085;51.120;6.956;2023-02-10T15:40:59;32.40;;;16.15;;
19848;SDS011;10085;51.120;6.956;2023-02-10T15:46:05;37.13;;;16.00;;
19848;SDS011;10085;51.120;6.956;2023-02-10T15:51:11;31.65;;;15.40;;
19848;SDS011;10085;51.120;6.956;2023-02-10T15:56:20;29.55;;;14.82;;
19848;SDS011;10085;51.120;6.956;2023-02-10T16:01:23;33.17;;;14.85;;
19848;SDS011;10085;51.120;6.956;2023-02-10T16:06:27;31.17;;;14.32;;
19848;SDS011;10085;51.120;6.956;2023-02-10T16:11:30;30.05;;;14.50;;
19848;SDS011;10085;51.120;6.956;2023-02-10T16:16:33;29.20;;;14.07;;
19848;SDS011;10085;51.120;6.956;2023-02-10T16:21:39;27.90;;;14.25;;
19848;SDS011;10085;51.120;6.956;2023-02-10T16:26:42;29.92;;;13.73;;
19848;SDS011;10085;51.120;6.956;2023-02-10T16:31:46;27.08;;;13.50;;
19848;SDS011;10085;51.120;6.956;2023-02-10T16:36:50;27.73;;;13.30;;
19848;SDS011;10085;51.120;6.956;2023-02-10T16:41:53;23.95;;;13.10;;
19848;SDS011;10085;51.120;6.956;2023-02-10T16:46:56;24.15;;;12.68;;
19848;SDS011;10085;51.120;6.956;2023-02-10T16:52:00;29.85;;;13.60;;
19848;SDS011;10085;51.120;6.956;2023-02-10T16:57:03;28.05;;;13.02;;
19848;SDS011;10085;51.120;6.956;2023-02-10T17:02:08;26.63;;;12.82;;
19848;SDS011;10085;51.120;6.956;2023-02-10T17:07:12;22.13;;;11.63;;
19848;SDS011;10085;51.120;6.956;2023-02-10T17:12:15;24.27;;;12.68;;
19848;SDS011;10085;51.120;6.956;2023-02-10T17:17:18;23.65;;;11.55;;
19848;SDS011;10085;51.120;6.956;2023-02-10T17:22:22;23.73;;;12.43;;
19848;SDS011;10085;51.120;6.956;2023-02-10T17:27:24;25.92;;;10.98;;
19848;SDS011;10085;51.120;6.956;2023-02-10T17:32:27;22.35;;;11.30;;
19848;SDS011;10085;51.120;6.956;2023-02-10T17:37:31;23.75;;;11.68;;
19848;SDS011;10085;51.120;6.956;2023-02-10T17:42:34;21.45;;;10.77;;
19848;SDS011;10085;51.120;6.956;2023-02-10T17:47:37;20.73;;;10.45;;
19848;SDS011;10085;51.120;6.956;2023-02-10T17:52:41;21.75;;;10.32;;
19848;SDS011;10085;51.120;6.956;2023-02-10T17:57:44;19.75;;;10.38;;
19848;SDS011;10085;51.120;6.956;2023-02-10T18:02:47;21.20;;;10.95;;
19848;SDS011;10085;51.120;6.956;2023-02-10T18:07:51;18.92;;;9.95;;
19848;SDS011;10085;51.120;6.956;2023-02-10T18:12:54;15.98;;;9.88;;
19848;SDS011;10085;51.120;6.956;2023-02-10T18:17:56;21.40;;;10.27;;
19848;SDS011;10085;51.120;6.956;2023-02-10T18:23:01;18.20;;;9.85;;
19848;SDS011;10085;51.120;6.956;2023-02-10T18:28:04;18.50;;;9.95;;
19848;SDS011;10085;51.120;6.956;2023-02-10T18:33:07;20.50;;;10.80;;
19848;SDS011;10085;51.120;6.956;2023-02-10T18:38:13;20.20;;;10.32;;
19848;SDS011;10085;51.120;6.956;2023-02-10T18:43:16;21.83;;;10.70;;
19848;SDS011;10085;51.120;6.956;2023-02-10T18:48:19;19.98;;;10.38;;
19848;SDS011;10085;51.120;6.956;2023-02-10T18:53:23;18.75;;;10.48;;
19848;SDS011;10085;51.120;6.956;2023-02-10T18:58:25;17.73;;;10.05;;
19848;SDS011;10085;51.120;6.956;2023-02-10T19:03:28;24.50;;;10.65;;
19848;SDS011;10085;51.120;6.956;2023-02-10T19:08:32;18.42;;;9.88;;
19848;SDS011;10085;51.120;6.956;2023-02-10T19:13:35;20.25;;;9.48;;
19848;SDS011;10085;51.120;6.956;2023-02-10T19:18:39;18.35;;;9.35;;
19848;SDS011;10085;51.120;6.956;2023-02-10T19:23:43;19.17;;;8.85;;
19848;SDS011;10085;51.120;6.956;2023-02-10T19:28:46;20.75;;;9.20;;
19848;SDS011;10085;51.120;6.956;2023-02-10T19:33:49;20.85;;;10.77;;
19848;SDS011;10085;51.120;6.956;2023-02-10T19:38:53;24.77;;;11.45;;
19848;SDS011;10085;51.120;6.956;2023-02-10T19:43:55;26.48;;;12.57;;
19848;SDS011;10085;51.120;6.956;2023-02-10T19:48:58;32.22;;;14.00;;
19848;SDS011;10085;51.120;6.956;2023-02-10T19:54:03;20.75;;;13.25;;
19848;SDS011;10085;51.120;6.956;2023-02-10T19:59:07;23.13;;;14.23;;
19848;SDS011;10085;51.120;6.956;2023-02-10T20:04:10;23.73;;;14.52;;
19848;SDS011;10085;51.120;6.956;2023-02-10T20:09:15;20.30;;;13.23;;
19848;SDS011;10085;51.120;6.956;2023-02-10T20:14:18;19.15;;;12.85;;
19848;SDS011;10085;51.120;6.956;2023-02-10T20:19:21;23.85;;;12.68;;
19848;SDS011;10085;51.120;6.956;2023-02-10T20:24:27;21.00;;;12.90;;
19848;SDS011;10085;51.120;6.956;2023-02-10T20:29:30;21.20;;;12.10;;
19848;SDS011;10085;51.120;6.956;2023-02-10T20:34:33;23.08;;;13.02;;
19848;SDS011;10085;51.120;6.956;2023-02-10T20:39:37;23.85;;;12.45;;
19848;SDS011;10085;51.120;6.956;2023-02-10T20:44:39;18.92;;;11.85;;
19848;SDS011;10085;51.120;6.956;2023-02-10T20:49:42;22.80;;;12.60;;
19848;SDS011;10085;51.120;6.956;2023-02-10T20:54:46;23.75;;;12.35;;
19848;SDS011;10085;51.120;6.956;2023-02-10T20:59:49;26.45;;;12.15;;
19848;SDS011;10085;51.120;6.956;2023-02-10T21:04:52;23.00;;;12.77;;
19848;SDS011;10085;51.120;6.956;2023-02-10T21:09:56;21.55;;;12.55;;
19848;SDS011;10085;51.120;6.956;2023-02-10T21:14:59;21.67;;;12.48;;
19848;SDS011;10085;51.120;6.956;2023-02-10T21:20:02;23.02;;;12.43;;
19848;SDS011;10085;51.120;6.956;2023-02-10T21:25:07;24.40;;;13.15;;
19848;SDS011;10085;51.120;6.956;2023-02-10T21:30:11;22.10;;;12.45;;
19848;SDS011;10085;51.120;6.956;2023-02-10T21:35:15;22.10;;;11.93;;
19848;SDS011;10085;51.120;6.956;2023-02-10T21:40:19;21.73;;;11.98;;
19848;SDS011;10085;51.120;6.956;2023-02-10T21:45:22;19.77;;;11.32;;
19848;SDS011;10085;51.120;6.956;2023-02-10T21:50:24;18.52;;;10.73;;
19848;SDS011;10085;51.120;6.956;2023-02-10T21:55:29;19.25;;;10.38;;
19848;SDS011;10085;51.120;6.956;2023-02-10T22:00:31;17.42;;;9.90;;
19848;SDS011;10085;51.120;6.956;2023-02-10T22:05:34;18.90;;;10.50;;
19848;SDS011;10085;51.120;6.956;2023-02-10T22:10:38;19.77;;;9.68;;
19848;SDS011;10085;51.120;6.956;2023-02-10T22:15:41;20.88;;;10.18;;
19848;SDS011;10085;51.120;6.956;2023-02-10T22:20:44;18.10;;;9.88;;
19848;SDS011;10085;51.120;6.956;2023-02-10T22:25:48;21.30;;;10.05;;
19848;SDS011;10085;51.120;6.956;2023-02-10T22:30:51;16.48;;;9.50;;
19848;SDS011;10085;51.120;6.956;2023-02-10T22:35:54;19.83;;;9.82;;
19848;SDS011;10085;51.120;6.956;2023-02-10T22:40:59;15.48;;;9.27;;
19848;SDS011;10085;51.120;6.956;2023-02-10T22:46:02;19.45;;;9.80;;
19848;SDS011;10085;51.120;6.956;2023-02-10T22:51:06;20.83;;;9.73;;
19848;SDS011;10085;51.120;6.956;2023-02-10T22:56:12;18.42;;;9.48;;
19848;SDS011;10085;51.120;6.956;2023-02-10T23:01:22;15.27;;;8.68;;
19848;SDS011;10085;51.120;6.956;2023-02-10T23:06:26;19.80;;;9.50;;
19848;SDS011;10085;51.120;6.956;2023-02-10T23:11:32;17.70;;;9.68;;
19848;SDS011;10085;51.120;6.956;2023-02-10T23:16:35;19.92;;;9.70;;
19848;SDS011;10085;51.120;6.956;2023-02-10T23:21:38;20.02;;;9.38;;
19848;SDS011;10085;51.120;6.956;2023-02-10T23:26:44;18.55;;;9.80;;
19848;SDS011;10085;51.120;6.956;2023-02-10T23:31:47;22.35;;;9.95;;
19848;SDS011;10085;51.120;6.956;2023-02-10T23:36:50;18.08;;;9.07;;
19848;SDS011;10085;51.120;6.956;2023-02-10T23:41:54;18.40;;;9.25;;
19848;SDS011;10085;51.120;6.956;2023-02-10T23:46:57;18.35;;;9.40;;
19848;SDS011;10085;51.120;6.956;2023-02-10T23:51:59;17.38;;;8.90;;
19848;SDS011;10085;51.120;6.956;2023-02-10T23:57:03;16.60;;;9.13;;
